createdAt,value
2022-10-16T00:01:16.296Z,80.89
2022-10-16T00:03:42.392Z,80.79
2022-10-16T00:06:08.499Z,80.92
2022-10-16T00:08:34.595Z,80.84
2022-10-16T00:11:00.693Z,80.46
2022-10-16T00:13:26.838Z,80.55
2022-10-16T00:15:52.937Z,80.41
2022-10-16T00:18:19.030Z,80.22
2022-10-16T00:20:45.194Z,80.28
2022-10-16T00:23:11.360Z,80.09
2022-10-16T00:25:37.436Z,80.03
2022-10-16T00:28:03.556Z,80.00
2022-10-16T00:30:29.642Z,80.02
2022-10-16T00:32:55.740Z,80.23
2022-10-16T00:35:21.859Z,80.15
2022-10-16T00:37:47.954Z,80.13
2022-10-16T00:40:14.044Z,80.10
2022-10-16T00:42:40.145Z,79.93
2022-10-16T00:45:06.241Z,80.03
2022-10-16T00:47:32.330Z,79.99
2022-10-16T00:49:58.942Z,79.94
2022-10-16T00:52:25.337Z,79.96
2022-10-16T00:54:51.661Z,80.02
2022-10-16T00:57:17.776Z,79.88
2022-10-16T00:59:43.865Z,79.92
2022-10-16T01:02:09.941Z,79.91
2022-10-16T01:04:36.067Z,79.92
2022-10-16T01:07:02.146Z,80.09
2022-10-16T01:09:28.436Z,80.31
2022-10-16T01:11:54.556Z,80.30
2022-10-16T01:14:20.679Z,80.49
2022-10-16T01:16:46.771Z,80.51
2022-10-16T01:19:12.879Z,80.29
2022-10-16T01:21:38.980Z,80.51
2022-10-16T01:24:05.070Z,80.46
2022-10-16T01:26:31.335Z,80.32
2022-10-16T01:28:57.477Z,80.33
2022-10-16T01:31:23.596Z,80.61
2022-10-16T01:33:49.763Z,80.51
2022-10-16T01:36:15.903Z,80.89
2022-10-16T01:38:41.990Z,80.92
2022-10-16T01:41:08.089Z,80.92
2022-10-16T01:43:34.180Z,80.84
2022-10-16T01:46:00.270Z,80.93
2022-10-16T01:48:26.373Z,81.12
2022-10-16T01:50:52.473Z,81.25
2022-10-16T01:53:18.570Z,81.26
2022-10-16T01:55:44.729Z,81.28
2022-10-16T01:58:10.821Z,81.37
2022-10-16T02:00:36.926Z,81.35
2022-10-16T02:03:03.031Z,81.10
2022-10-16T02:05:29.126Z,81.23
2022-10-16T02:07:55.210Z,81.34
2022-10-16T02:10:21.337Z,81.38
2022-10-16T02:12:47.486Z,81.26
2022-10-16T02:15:13.602Z,81.11
2022-10-16T02:17:39.707Z,81.05
2022-10-16T02:20:05.803Z,81.33
2022-10-16T02:22:31.891Z,80.93
2022-10-16T02:24:57.989Z,81.26
2022-10-16T02:27:24.077Z,81.29
2022-10-16T02:29:50.177Z,81.08
2022-10-16T02:32:16.273Z,81.20
2022-10-16T02:34:42.373Z,81.19
2022-10-16T02:37:08.466Z,81.09
2022-10-16T02:39:34.582Z,80.84
2022-10-16T02:42:00.670Z,81.01
2022-10-16T02:44:26.766Z,80.97
2022-10-16T02:46:52.881Z,80.72
2022-10-16T02:49:18.981Z,80.76
2022-10-16T02:51:45.076Z,80.82
2022-10-16T02:54:11.178Z,80.95
2022-10-16T02:56:37.264Z,80.72
2022-10-16T02:59:03.351Z,81.02
2022-10-16T03:01:29.477Z,80.70
2022-10-16T03:03:55.630Z,81.02
2022-10-16T03:06:21.716Z,80.92
2022-10-16T03:08:47.837Z,80.76
2022-10-16T03:11:13.937Z,80.69
2022-10-16T03:13:40.015Z,80.56
2022-10-16T03:16:06.108Z,80.50
2022-10-16T03:18:32.185Z,80.38
2022-10-16T03:20:58.285Z,80.27
2022-10-16T03:23:24.947Z,80.37
2022-10-16T03:25:51.110Z,80.41
2022-10-16T03:28:17.197Z,80.02
2022-10-16T03:30:43.297Z,80.26
2022-10-16T03:33:09.405Z,80.21
2022-10-16T03:35:35.492Z,79.80
2022-10-16T03:38:01.589Z,80.01
2022-10-16T03:40:27.752Z,79.91
2022-10-16T03:42:53.842Z,79.87
2022-10-16T03:45:19.952Z,79.83
2022-10-16T03:47:46.039Z,79.75
2022-10-16T03:50:12.119Z,79.70
2022-10-16T03:52:38.215Z,79.51
2022-10-16T03:55:04.305Z,79.48
2022-10-16T03:57:30.429Z,79.18
2022-10-16T03:59:57.035Z,79.33
2022-10-16T04:02:23.113Z,79.05
2022-10-16T04:04:49.204Z,79.23
2022-10-16T04:07:15.336Z,78.99
2022-10-16T04:09:41.421Z,79.06
2022-10-16T04:12:07.518Z,78.92
2022-10-16T04:14:33.619Z,78.92
2022-10-16T04:16:59.701Z,78.61
2022-10-16T04:19:25.790Z,78.59
2022-10-16T04:21:51.892Z,78.96
2022-10-16T04:24:17.972Z,78.57
2022-10-16T04:26:44.063Z,78.61
2022-10-16T04:29:10.471Z,78.69
2022-10-16T04:31:36.574Z,78.54
2022-10-16T04:34:02.667Z,78.61
2022-10-16T04:36:29.402Z,78.72
2022-10-16T04:38:55.585Z,78.84
2022-10-16T04:41:21.672Z,78.95
2022-10-16T04:43:47.777Z,78.90
2022-10-16T04:46:13.857Z,79.00
2022-10-16T04:48:39.946Z,79.15
2022-10-16T04:51:06.070Z,79.08
2022-10-16T04:53:32.159Z,79.32
2022-10-16T04:55:58.248Z,79.04
2022-10-16T04:58:24.370Z,79.43
2022-10-16T05:00:50.466Z,79.50
2022-10-16T05:03:16.704Z,79.45
2022-10-16T05:05:43.428Z,79.41
2022-10-16T05:08:09.524Z,79.33
2022-10-16T05:10:35.611Z,79.71
2022-10-16T05:13:01.717Z,79.52
2022-10-16T05:15:27.817Z,79.59
2022-10-16T05:17:53.903Z,79.83
2022-10-16T05:20:20.047Z,79.83
2022-10-16T05:22:46.124Z,79.75
2022-10-16T05:25:12.216Z,79.70
2022-10-16T05:27:38.330Z,79.73
2022-10-16T05:30:06.479Z,79.83
2022-10-16T05:32:34.742Z,80.08
2022-10-16T05:35:00.854Z,79.99
2022-10-16T05:37:27.270Z,80.07
2022-10-16T05:39:53.672Z,80.21
2022-10-16T05:42:19.796Z,80.53
2022-10-16T05:44:45.875Z,80.44
2022-10-16T05:47:11.966Z,80.36
2022-10-16T05:49:40.533Z,80.75
2022-10-16T05:52:07.641Z,80.60
2022-10-16T05:54:33.735Z,80.97
2022-10-16T05:56:59.838Z,81.12
2022-10-16T05:59:25.911Z,80.93
2022-10-16T06:01:51.999Z,80.97
2022-10-16T06:04:18.138Z,81.37
2022-10-16T06:06:44.222Z,81.11
2022-10-16T06:09:10.315Z,81.23
2022-10-16T06:11:36.425Z,81.39
2022-10-16T06:14:02.521Z,81.62
2022-10-16T06:16:28.611Z,81.61
2022-10-16T06:18:54.721Z,81.53
2022-10-16T06:21:20.795Z,81.73
2022-10-16T06:26:17.914Z,81.70
2022-10-16T06:28:44.121Z,81.98
2022-10-16T06:31:10.257Z,82.06
2022-10-16T06:33:36.389Z,82.01
2022-10-16T06:36:02.472Z,81.74
2022-10-16T06:38:28.565Z,81.74
2022-10-16T06:40:55.168Z,81.82
2022-10-16T06:43:21.256Z,82.02
2022-10-16T06:45:47.346Z,82.03
2022-10-16T06:48:13.461Z,82.13
2022-10-16T06:50:39.549Z,82.00
2022-10-16T06:53:05.647Z,81.82
2022-10-16T06:55:31.764Z,81.99
2022-10-16T06:57:57.873Z,82.00
2022-10-16T07:02:50.998Z,81.88
2022-10-16T07:05:17.088Z,81.98
2022-10-16T07:07:43.171Z,81.64
2022-10-16T07:10:09.635Z,81.63
2022-10-16T07:12:35.741Z,81.65
2022-10-16T07:15:01.830Z,81.59
2022-10-16T07:17:27.948Z,81.52
2022-10-16T07:19:54.031Z,81.24
2022-10-16T07:22:20.116Z,81.18
2022-10-16T07:24:49.139Z,81.12
2022-10-16T07:27:17.869Z,80.97
2022-10-16T07:29:43.955Z,80.87
2022-10-16T07:32:10.372Z,80.86
2022-10-16T07:34:36.466Z,80.83
2022-10-16T07:37:02.566Z,81.01
2022-10-16T07:39:28.682Z,80.67
2022-10-16T07:41:54.764Z,80.71
2022-10-16T07:44:20.849Z,80.84
2022-10-16T07:46:47.457Z,80.61
2022-10-16T07:49:13.541Z,80.74
2022-10-16T07:51:39.651Z,80.73
2022-10-16T07:54:05.814Z,80.68
2022-10-16T07:56:31.893Z,80.50
2022-10-16T07:58:57.985Z,80.84
2022-10-16T08:01:24.199Z,80.51
2022-10-16T08:03:50.371Z,80.60
2022-10-16T08:06:16.507Z,80.77
2022-10-16T08:08:42.619Z,80.72
2022-10-16T08:11:08.705Z,80.47
2022-10-16T08:13:34.797Z,80.45
2022-10-16T08:16:00.964Z,80.58
2022-10-16T08:18:27.053Z,80.67
2022-10-16T08:20:53.136Z,80.54
2022-10-16T08:23:19.241Z,80.62
2022-10-16T08:25:45.320Z,80.54
2022-10-16T08:28:11.437Z,80.15
2022-10-16T08:30:37.555Z,80.46
2022-10-16T08:33:03.634Z,80.26
2022-10-16T08:35:29.718Z,79.86
2022-10-16T08:37:55.869Z,79.94
2022-10-16T08:40:22.121Z,79.81
2022-10-16T08:42:48.325Z,79.37
2022-10-16T08:45:14.573Z,79.20
2022-10-16T08:47:40.661Z,79.09
2022-10-16T08:50:06.803Z,79.13
2022-10-16T08:52:32.938Z,78.92
2022-10-16T08:54:59.036Z,78.48
2022-10-16T08:57:25.120Z,78.22
2022-10-16T08:59:51.225Z,77.46
2022-10-16T09:02:17.317Z,76.98
2022-10-16T09:04:43.421Z,76.59
2022-10-16T09:07:09.537Z,76.01
2022-10-16T09:09:35.659Z,75.19
2022-10-16T09:12:01.760Z,74.95
2022-10-16T09:14:27.879Z,74.24
2022-10-16T09:16:53.996Z,73.91
2022-10-16T09:19:20.085Z,73.67
2022-10-16T09:21:46.182Z,73.39
2022-10-16T09:24:12.274Z,73.07
2022-10-16T09:26:38.360Z,72.99
2022-10-16T09:29:04.553Z,72.91
2022-10-16T09:31:30.705Z,72.55
2022-10-16T09:33:56.805Z,72.18
2022-10-16T09:36:22.923Z,72.09
2022-10-16T09:38:49.003Z,71.71
2022-10-16T09:41:15.112Z,71.46
2022-10-16T09:43:41.353Z,71.10
2022-10-16T09:46:07.460Z,70.52
2022-10-16T09:48:33.608Z,70.44
2022-10-16T09:50:59.758Z,70.32
2022-10-16T09:53:25.840Z,70.40
2022-10-16T09:55:51.924Z,70.00
2022-10-16T09:58:18.042Z,69.68
2022-10-16T10:00:44.133Z,69.60
2022-10-16T10:03:10.231Z,69.46
2022-10-16T10:05:36.324Z,69.19
2022-10-16T10:08:02.417Z,68.98
2022-10-16T10:10:28.548Z,68.86
2022-10-16T10:12:54.690Z,68.44
2022-10-16T10:15:20.838Z,68.23
2022-10-16T10:17:46.968Z,68.03
2022-10-16T10:20:13.622Z,67.53
2022-10-16T10:22:39.758Z,67.00
2022-10-16T10:25:05.979Z,66.86
2022-10-16T10:27:32.098Z,66.47
2022-10-16T10:29:58.201Z,65.89
2022-10-16T10:32:24.725Z,65.70
2022-10-16T10:34:54.266Z,65.29
2022-10-16T10:37:22.829Z,65.07
2022-10-16T10:39:48.958Z,64.75
2022-10-16T10:42:15.115Z,64.29
2022-10-16T10:44:41.209Z,63.89
2022-10-16T10:47:07.320Z,63.31
2022-10-16T10:49:33.439Z,62.92
2022-10-16T10:51:59.523Z,62.53
2022-10-16T10:54:25.605Z,62.31
2022-10-16T10:56:51.710Z,61.96
2022-10-16T10:59:17.784Z,61.74
2022-10-16T11:01:43.931Z,61.73
2022-10-16T11:04:10.068Z,61.68
2022-10-16T11:06:36.193Z,61.72
2022-10-16T11:09:02.296Z,61.48
2022-10-16T11:11:28.403Z,61.35
2022-10-16T11:13:54.488Z,61.16
2022-10-16T11:16:21.653Z,61.01
2022-10-16T11:18:47.986Z,60.96
2022-10-16T11:21:14.099Z,61.00
2022-10-16T11:23:40.184Z,60.83
2022-10-16T11:26:06.645Z,60.97
2022-10-16T11:28:32.814Z,60.86
2022-10-16T11:30:58.948Z,60.64
2022-10-16T11:33:25.140Z,60.26
2022-10-16T11:35:51.285Z,60.19
2022-10-16T11:38:17.413Z,59.98
2022-10-16T11:40:43.920Z,59.37
2022-10-16T11:45:36.141Z,59.10
2022-10-16T11:48:02.684Z,59.31
2022-10-16T11:50:29.341Z,59.54
2022-10-16T11:52:55.543Z,59.35
2022-10-16T11:55:22.303Z,59.47
2022-10-16T11:57:48.380Z,59.35
2022-10-16T12:00:14.480Z,59.00
2022-10-16T12:02:40.587Z,58.95
2022-10-16T12:05:06.731Z,58.88
2022-10-16T12:07:32.892Z,58.77
2022-10-16T12:09:59.122Z,59.07
2022-10-16T12:12:25.629Z,58.87
2022-10-16T12:15:14.624Z,58.71
2022-10-16T12:17:38.055Z,58.66
2022-10-16T12:20:04.167Z,58.45
2022-10-16T12:22:30.284Z,58.38
2022-10-16T12:24:56.427Z,58.26
2022-10-16T12:27:22.618Z,58.41
2022-10-16T12:29:49.622Z,58.10
2022-10-16T12:32:19.392Z,57.90
2022-10-16T12:34:50.240Z,57.68
2022-10-16T12:37:16.349Z,57.46
2022-10-16T12:39:42.432Z,57.58
2022-10-16T12:42:08.532Z,57.45
2022-10-16T12:44:34.642Z,57.37
2022-10-16T12:47:00.723Z,57.46
2022-10-16T12:49:26.875Z,57.54
2022-10-16T12:51:52.967Z,57.74
2022-10-16T12:54:19.063Z,57.86
2022-10-16T12:56:45.149Z,57.92
2022-10-16T12:59:11.276Z,58.01
2022-10-16T13:01:37.417Z,58.02
2022-10-16T13:04:03.515Z,57.78
2022-10-16T13:06:29.645Z,57.70
2022-10-16T13:08:55.738Z,57.46
2022-10-16T13:11:21.823Z,57.01
2022-10-16T13:13:47.941Z,56.65
2022-10-16T13:16:14.085Z,56.49
2022-10-16T13:18:40.199Z,56.33
2022-10-16T13:21:06.429Z,56.02
2022-10-16T13:23:32.508Z,56.05
2022-10-16T13:25:58.600Z,56.15
2022-10-16T13:28:24.746Z,56.25
2022-10-16T13:30:50.857Z,56.43
2022-10-16T13:33:16.959Z,56.55
2022-10-16T13:35:43.107Z,56.64
2022-10-16T13:38:09.222Z,56.87
2022-10-16T13:40:35.411Z,57.06
2022-10-16T13:43:01.589Z,57.19
2022-10-16T13:45:27.830Z,57.20
2022-10-16T13:47:53.921Z,57.26
2022-10-16T13:50:20.037Z,57.45
2022-10-16T13:52:46.135Z,57.30
2022-10-16T13:55:12.222Z,57.34
2022-10-16T13:57:38.406Z,57.31
2022-10-16T14:00:04.514Z,57.42
2022-10-16T14:02:30.732Z,57.65
2022-10-16T14:04:56.949Z,57.83
2022-10-16T14:07:23.033Z,57.98
2022-10-16T14:09:49.131Z,57.98
2022-10-16T14:12:15.257Z,58.16
2022-10-16T14:14:41.340Z,58.30
2022-10-16T14:17:07.440Z,58.04
2022-10-16T14:19:33.536Z,57.92
2022-10-16T14:21:59.623Z,57.55
2022-10-16T14:24:25.712Z,57.69
2022-10-16T14:26:51.805Z,57.44
2022-10-16T14:29:17.893Z,57.42
2022-10-16T14:31:43.995Z,57.17
2022-10-16T14:34:10.104Z,56.86
2022-10-16T14:36:36.231Z,56.40
2022-10-16T14:39:02.420Z,55.98
2022-10-16T14:41:28.613Z,55.97
2022-10-16T14:43:54.701Z,55.84
2022-10-16T14:48:47.832Z,55.91
2022-10-16T14:51:13.907Z,56.19
2022-10-16T14:53:40.011Z,56.29
2022-10-16T14:56:06.134Z,56.40
2022-10-16T14:58:32.225Z,56.48
2022-10-16T15:00:58.306Z,56.60
2022-10-16T15:03:24.461Z,56.85
2022-10-16T15:05:50.562Z,56.79
2022-10-16T15:08:16.664Z,56.87
2022-10-16T15:10:42.768Z,57.23
2022-10-16T15:13:08.865Z,57.39
2022-10-16T15:15:34.966Z,57.68
2022-10-16T15:18:01.075Z,57.88
2022-10-16T15:20:27.173Z,57.90
2022-10-16T15:22:53.261Z,58.22
2022-10-16T15:25:19.369Z,58.39
2022-10-16T15:27:45.459Z,58.58
2022-10-16T15:30:11.540Z,58.82
2022-10-16T15:32:37.670Z,58.89
2022-10-16T15:35:03.831Z,59.14
2022-10-16T15:37:29.969Z,59.32
2022-10-16T15:39:56.577Z,59.59
2022-10-16T15:42:22.678Z,59.70
2022-10-16T15:44:48.762Z,59.78
2022-10-16T15:47:14.862Z,60.18
2022-10-16T15:49:40.949Z,60.42
2022-10-16T15:52:07.051Z,60.53
2022-10-16T15:54:33.153Z,60.68
2022-10-16T15:56:59.250Z,60.82
2022-10-16T15:59:25.332Z,60.82
2022-10-16T16:01:52.155Z,60.88
2022-10-16T16:04:42.251Z,61.07
2022-10-16T16:07:04.426Z,61.23
2022-10-16T16:09:30.531Z,61.48
2022-10-16T16:11:56.665Z,61.62
2022-10-16T16:14:22.775Z,61.78
2022-10-16T16:16:48.852Z,62.09
2022-10-16T16:19:14.959Z,62.27
2022-10-16T16:21:41.073Z,62.57
2022-10-16T16:24:07.304Z,62.61
2022-10-16T16:26:33.451Z,62.84
2022-10-16T16:28:59.601Z,63.01
2022-10-16T16:31:25.759Z,63.08
2022-10-16T16:33:51.849Z,63.42
2022-10-16T16:36:17.968Z,63.53
2022-10-16T16:38:44.069Z,63.77
2022-10-16T16:41:10.176Z,63.87
2022-10-16T16:43:36.328Z,63.88
2022-10-16T16:46:02.433Z,64.18
2022-10-16T16:48:28.506Z,64.44
2022-10-16T16:50:54.660Z,64.70
2022-10-16T16:53:20.732Z,64.71
2022-10-16T16:55:46.857Z,64.82
2022-10-16T16:58:12.979Z,64.87
2022-10-16T17:00:47.268Z,65.12
2022-10-16T17:03:17.732Z,65.27
2022-10-16T17:05:43.863Z,65.36
2022-10-16T17:08:09.971Z,65.33
2022-10-16T17:10:36.138Z,65.32
2022-10-16T17:13:02.234Z,65.44
2022-10-16T17:15:31.498Z,65.61
2022-10-16T17:17:57.626Z,65.53
2022-10-16T17:20:23.710Z,65.86
2022-10-16T17:22:49.813Z,65.97
2022-10-16T17:25:15.930Z,65.99
2022-10-16T17:27:42.041Z,65.97
2022-10-16T17:30:08.144Z,66.05
2022-10-16T17:32:34.260Z,66.27
2022-10-16T17:35:00.345Z,66.31
2022-10-16T17:37:27.747Z,66.58
2022-10-16T17:39:53.907Z,66.58
2022-10-16T17:42:20.006Z,66.75
2022-10-16T17:44:46.083Z,66.85
2022-10-16T17:47:12.225Z,66.96
2022-10-16T17:49:38.314Z,66.92
2022-10-16T17:52:04.399Z,67.13
2022-10-16T17:54:30.550Z,67.31
2022-10-16T17:56:56.632Z,67.34
2022-10-16T17:59:22.721Z,67.35
2022-10-16T18:01:49.043Z,67.67
2022-10-16T18:04:15.153Z,67.87
2022-10-16T18:06:41.250Z,67.97
2022-10-16T18:09:07.397Z,68.17
2022-10-16T18:11:33.480Z,67.99
2022-10-16T18:13:59.564Z,68.13
2022-10-16T18:16:25.679Z,68.21
2022-10-16T18:18:51.769Z,68.42
2022-10-16T18:21:17.856Z,68.54
2022-10-16T18:23:49.057Z,68.56
2022-10-16T18:26:18.216Z,68.76
2022-10-16T18:28:44.396Z,68.86
2022-10-16T18:31:10.544Z,68.90
2022-10-16T18:33:36.657Z,69.32
2022-10-16T18:36:02.765Z,69.19
2022-10-16T18:38:28.852Z,69.33
2022-10-16T18:40:54.942Z,69.51
2022-10-16T18:43:21.198Z,69.89
2022-10-16T18:45:47.313Z,70.00
2022-10-16T18:48:13.397Z,70.22
2022-10-16T18:50:39.493Z,70.58
2022-10-16T18:53:05.612Z,70.73
2022-10-16T18:55:31.694Z,71.02
2022-10-16T18:57:57.821Z,71.26
2022-10-16T19:00:23.917Z,71.83
2022-10-16T19:02:50.000Z,72.16
2022-10-16T19:05:16.108Z,72.55
2022-10-16T19:07:42.196Z,72.79
2022-10-16T19:10:08.291Z,73.10
2022-10-16T19:12:34.384Z,73.28
2022-10-16T19:15:00.514Z,73.52
2022-10-16T19:17:26.626Z,73.62
2022-10-16T19:19:52.758Z,73.84
2022-10-16T19:22:18.865Z,73.88
2022-10-16T19:24:44.952Z,74.02
2022-10-16T19:27:11.062Z,74.21
2022-10-16T19:29:37.143Z,74.37
2022-10-16T19:32:06.568Z,74.56
2022-10-16T19:34:33.631Z,74.60
2022-10-16T19:36:59.727Z,74.84
2022-10-16T19:39:25.825Z,75.13
2022-10-16T19:41:51.946Z,75.15
2022-10-16T19:44:18.032Z,75.38
2022-10-16T19:46:44.115Z,75.51
2022-10-16T19:49:10.234Z,75.73
2022-10-16T19:51:36.333Z,75.96
2022-10-16T19:54:02.433Z,75.96
2022-10-16T19:56:28.836Z,75.96
2022-10-16T19:58:54.944Z,76.37
2022-10-16T20:01:21.080Z,76.60
2022-10-16T20:03:47.269Z,76.67
2022-10-16T20:06:13.347Z,76.76
2022-10-16T20:08:39.447Z,76.65
2022-10-16T20:11:06.078Z,76.56
2022-10-16T20:13:32.166Z,76.57
2022-10-16T20:15:58.332Z,76.35
2022-10-16T20:18:24.511Z,76.64
2022-10-16T20:20:50.653Z,76.52
2022-10-16T20:23:16.799Z,76.81
2022-10-16T20:25:42.897Z,76.60
2022-10-16T20:28:08.993Z,76.81
2022-10-16T20:30:35.074Z,76.80
2022-10-16T20:33:01.185Z,76.64
2022-10-16T20:35:27.283Z,76.88
2022-10-16T20:37:53.467Z,76.67
2022-10-16T20:40:19.571Z,76.84
2022-10-16T20:42:45.660Z,76.98
2022-10-16T20:45:11.790Z,76.90
2022-10-16T20:47:37.895Z,77.06
2022-10-16T20:50:03.976Z,77.09
2022-10-16T20:52:30.063Z,77.35
2022-10-16T20:54:56.178Z,77.39
2022-10-16T20:57:22.281Z,77.67
2022-10-16T20:59:48.410Z,77.73
2022-10-16T21:02:14.742Z,77.93
2022-10-16T21:04:40.902Z,78.17
2022-10-16T21:07:06.985Z,78.34
2022-10-16T21:09:33.118Z,78.32
2022-10-16T21:11:59.210Z,78.42
2022-10-16T21:14:25.316Z,78.67
2022-10-16T21:16:51.488Z,78.89
2022-10-16T21:19:17.569Z,78.93
2022-10-16T21:21:43.644Z,79.18
2022-10-16T21:24:12.304Z,79.16
2022-10-16T21:26:41.247Z,79.52
2022-10-16T21:29:07.447Z,79.41
2022-10-16T21:31:33.618Z,79.45
2022-10-16T21:33:59.736Z,79.55
2022-10-16T21:36:25.821Z,79.61
2022-10-16T21:38:51.928Z,79.75
2022-10-16T21:41:18.008Z,80.06
2022-10-16T21:43:44.094Z,79.90
2022-10-16T21:46:10.217Z,80.08
2022-10-16T21:48:36.321Z,80.05
2022-10-16T21:51:02.408Z,80.16
2022-10-16T21:53:28.521Z,80.36
2022-10-16T21:55:54.627Z,80.49
2022-10-16T21:58:20.716Z,80.54
2022-10-16T22:00:46.875Z,80.65
2022-10-16T22:03:12.970Z,80.85
2022-10-16T22:05:39.062Z,80.98
2022-10-16T22:08:05.168Z,81.01
2022-10-16T22:10:31.262Z,81.27
2022-10-16T22:12:57.377Z,81.38
2022-10-16T22:17:49.475Z,81.56
2022-10-16T22:20:15.556Z,81.66
2022-10-16T22:22:41.694Z,81.66
2022-10-16T22:25:07.894Z,81.53
2022-10-16T22:27:34.077Z,81.81
2022-10-16T22:30:00.320Z,81.71
2022-10-16T22:32:26.441Z,82.04
2022-10-16T22:34:52.576Z,82.09
2022-10-16T22:37:18.717Z,82.14
2022-10-16T22:39:44.851Z,82.25
2022-10-16T22:42:10.958Z,82.23
2022-10-16T22:44:37.098Z,82.30
2022-10-16T22:47:03.248Z,82.46
2022-10-16T22:49:29.406Z,82.42
2022-10-16T22:51:55.595Z,82.29
2022-10-16T22:54:21.715Z,82.43
2022-10-16T22:56:47.834Z,82.38
2022-10-16T22:59:14.004Z,82.50
2022-10-16T23:01:40.100Z,82.60
2022-10-16T23:04:06.194Z,82.46
2022-10-16T23:06:32.340Z,82.32
2022-10-16T23:08:58.425Z,82.65
2022-10-16T23:11:24.525Z,82.45
2022-10-16T23:13:50.640Z,82.35
2022-10-16T23:16:16.723Z,82.45
2022-10-16T23:18:42.803Z,82.30
2022-10-16T23:21:08.912Z,82.27
2022-10-16T23:23:35.001Z,82.15
2022-10-16T23:26:01.094Z,82.10
2022-10-16T23:28:27.292Z,81.94
2022-10-16T23:30:53.432Z,82.04
2022-10-16T23:33:19.525Z,82.00
2022-10-16T23:35:45.649Z,82.10
2022-10-16T23:38:11.755Z,82.08
2022-10-16T23:40:37.889Z,82.08
2022-10-16T23:43:04.018Z,81.96
2022-10-16T23:45:30.100Z,81.78
2022-10-16T23:47:56.199Z,81.79
2022-10-16T23:50:22.287Z,81.60
2022-10-16T23:52:48.381Z,81.72
2022-10-16T23:55:14.482Z,81.69
2022-10-16T23:57:40.600Z,81.82
